Time;durP1;ratioP1;P1;durP2;ratioP2;P2;SDS_P1;SDS_P2;PMS_P1;PMS_P2;Temp;Humidity;BMP_temperature;BMP_pressure;BME280_temperature;BME280_humidity;BME280_pressure;Samples;Min_cycle;Max_cycle;Signal;HPM_P1;HPM_P2
2022/12/30 00:02:06;;;;;;;1.97;1.67;;;8.70;99.90;;;;;;5054442;28;20244;-83
2022/12/30 00:04:32;;;;;;;2.20;1.63;;;8.60;99.90;;;;;;5056240;28;20241;-84
2022/12/30 00:07:00;;;;;;;3.97;1.77;;;8.70;99.90;;;;;;5058524;28;20196;-84
2022/12/30 00:09:26;;;;;;;4.17;1.93;;;8.70;99.90;;;;;;5058044;28;20192;-83
2022/12/30 00:11:51;;;;;;;3.07;1.80;;;8.70;99.90;;;;;;5054123;28;20172;-84
2022/12/30 00:33:50;;;;;;;2.03;1.90;;;8.70;99.90;;;;;;5054846;28;20692;-84
2022/12/30 00:36:16;;;;;;;1.57;1.47;;;8.60;99.90;;;;;;5057613;28;20222;-86
2022/12/30 00:38:42;;;;;;;2.03;1.83;;;8.60;99.90;;;;;;5063549;28;20279;-84
2022/12/30 00:43:52;;;;;;;2.00;1.90;;;8.60;99.90;;;;;;5054332;28;20290;-84
2022/12/30 00:46:18;;;;;;;1.80;1.70;;;8.50;99.90;;;;;;5056570;28;20193;-83
2022/12/30 00:57:00;;;;;;;2.27;1.80;;;8.10;99.90;;;;;;5059332;28;20218;-85
2022/12/30 00:59:26;;;;;;;2.00;1.80;;;8.00;99.90;;;;;;5057494;28;20244;-83
2022/12/30 01:01:52;;;;;;;1.97;1.77;;;8.00;99.90;;;;;;5058810;28;20872;-84
2022/12/30 01:04:17;;;;;;;2.03;1.83;;;8.00;99.90;;;;;;5055461;28;20191;-85
2022/12/30 01:06:43;;;;;;;2.07;1.70;;;8.00;99.90;;;;;;5058046;28;20245;-84
2022/12/30 01:09:09;;;;;;;2.43;1.77;;;8.00;99.90;;;;;;5059994;28;20211;-83
2022/12/30 01:11:35;;;;;;;6.77;2.13;;;7.90;99.90;;;;;;5059962;28;20219;-84
2022/12/30 01:14:01;;;;;;;3.27;2.07;;;7.90;99.90;;;;;;5055047;28;20213;-84
2022/12/30 01:16:26;;;;;;;3.33;2.20;;;7.90;99.90;;;;;;5055605;28;20200;-84
2022/12/30 01:18:52;;;;;;;5.83;2.23;;;7.90;99.90;;;;;;5058177;28;20203;-83
2022/12/30 01:21:18;;;;;;;2.70;1.97;;;7.90;99.90;;;;;;5062425;28;20200;-83
2022/12/30 01:23:43;;;;;;;2.27;2.07;;;7.80;99.90;;;;;;5060398;28;20251;-84
2022/12/30 01:26:10;;;;;;;3.97;2.07;;;7.80;99.90;;;;;;5065777;28;20180;-84
2022/12/30 01:28:37;;;;;;;4.60;2.13;;;7.70;99.90;;;;;;5057066;28;20183;-84
2022/12/30 01:31:10;;;;;;;3.67;2.40;;;7.70;99.90;;;;;;5064240;28;20204;-84
2022/12/30 01:33:36;;;;;;;3.90;2.60;;;7.70;99.90;;;;;;5060967;28;20220;-83
2022/12/30 01:36:04;;;;;;;2.73;2.33;;;7.70;99.90;;;;;;5058169;28;20180;-85
2022/12/30 01:38:31;;;;;;;4.00;2.50;;;7.70;99.90;;;;;;5060823;28;20193;-85
2022/12/30 01:40:58;;;;;;;3.57;2.30;;;7.60;99.90;;;;;;5060721;28;20594;-84
2022/12/30 01:43:53;;;;;;;4.93;2.60;;;7.60;99.90;;;;;;5061703;28;20180;-86
2022/12/30 01:46:26;;;;;;;3.30;2.17;;;7.60;99.90;;;;;;5035971;28;20216;-85
2022/12/30 01:48:55;;;;;;;5.37;2.40;;;7.50;99.90;;;;;;5058025;28;20215;-85
2022/12/30 01:51:29;;;;;;;3.47;2.40;;;7.50;99.90;;;;;;5056792;28;20216;-83
2022/12/30 01:53:58;;;;;;;7.30;2.70;;;7.50;99.90;;;;;;5059278;28;20212;-86
2022/12/30 01:56:27;;;;;;;4.23;2.20;;;7.50;99.90;;;;;;5055978;28;20247;-84
2022/12/30 01:59:00;;;;;;;3.80;2.20;;;7.50;99.90;;;;;;5065692;28;20262;-87
2022/12/30 02:01:26;;;;;;;3.43;2.30;;;7.60;99.90;;;;;;5064232;28;20228;-86
2022/12/30 02:04:00;;;;;;;3.90;2.13;;;7.70;99.90;;;;;;5065268;28;20169;-87
2022/12/30 02:06:46;;;;;;;2.90;2.43;;;7.60;99.90;;;;;;5072632;28;20188;-87
2022/12/30 02:09:11;;;;;;;4.97;2.50;;;7.50;99.90;;;;;;5055636;28;20184;-83
2022/12/30 02:11:37;;;;;;;5.33;2.50;;;7.40;99.90;;;;;;5055456;28;20306;-84
2022/12/30 02:14:03;;;;;;;3.07;2.50;;;7.30;99.90;;;;;;5056050;28;20312;-85
2022/12/30 02:16:46;;;;;;;5.53;2.40;;;7.40;99.90;;;;;;5057555;28;20218;-82
2022/12/30 02:19:34;;;;;;;4.80;2.30;;;7.30;99.90;;;;;;5053291;28;20663;-84
2022/12/30 02:22:25;;;;;;;6.07;2.60;;;7.40;99.90;;;;;;5056648;28;20183;-84
2022/12/30 02:25:09;;;;;;;2.63;2.23;;;7.30;99.90;;;;;;5059564;28;20191;-83
2022/12/30 02:27:52;;;;;;;3.67;2.30;;;7.40;99.90;;;;;;5054658;28;20207;-83
2022/12/30 02:30:20;;;;;;;2.17;1.90;;;7.50;99.90;;;;;;5051625;28;20232;-83
2022/12/30 02:33:34;;;;;;;4.27;2.33;;;7.70;99.90;;;;;;5051251;28;20188;-86
2022/12/30 02:36:28;;;;;;;3.83;2.27;;;7.80;99.90;;;;;;4961165;28;20207;-84
2022/12/30 02:39:15;;;;;;;3.83;2.10;;;7.60;99.90;;;;;;5049145;28;20290;-85
2022/12/30 02:44:51;;;;;;;2.20;1.90;;;7.70;99.90;;;;;;5058342;28;20237;-84
2022/12/30 02:47:30;;;;;;;3.40;1.93;;;7.60;99.90;;;;;;5050161;28;20410;-84
2022/12/30 02:52:47;;;;;;;3.60;2.30;;;7.70;99.90;;;;;;5049755;28;20327;-84
2022/12/30 02:55:15;;;;;;;4.33;1.77;;;7.70;99.90;;;;;;5047094;28;20192;-85
2022/12/30 02:57:40;;;;;;;3.60;2.20;;;7.70;99.90;;;;;;5052904;28;20204;-82
2022/12/30 03:06:21;;;;;;;1.80;1.70;;;7.60;99.90;;;;;;5052552;28;20211;-84
2022/12/30 03:08:52;;;;;;;2.43;2.10;;;7.90;99.90;;;;;;5055263;28;20185;-84
2022/12/30 03:11:19;;;;;;;2.03;1.70;;;7.80;99.90;;;;;;5050075;28;20204;-84
2022/12/30 03:13:45;;;;;;;2.40;2.20;;;7.80;99.90;;;;;;5046598;28;20188;-84
2022/12/30 03:16:42;;;;;;;2.43;2.10;;;7.60;99.90;;;;;;5052870;28;20204;-84
2022/12/30 03:19:31;;;;;;;2.23;1.97;;;7.60;99.90;;;;;;5053775;28;20264;-84
2022/12/30 03:21:58;;;;;;;2.40;2.07;;;7.50;99.90;;;;;;5045378;28;20189;-84
2022/12/30 03:27:15;;;;;;;3.23;2.30;;;7.60;99.90;;;;;;5052882;28;20218;-84
2022/12/30 03:29:51;;;;;;;2.40;2.23;;;7.50;99.90;;;;;;5057016;28;20708;-84
2022/12/30 03:32:18;;;;;;;3.23;2.23;;;7.40;99.90;;;;;;5045140;28;20183;-85
2022/12/30 03:34:45;;;;;;;2.93;2.33;;;7.40;99.90;;;;;;5048373;28;20187;-85
2022/12/30 03:37:23;;;;;;;2.83;1.90;;;7.30;99.90;;;;;;5052129;28;20204;-85
2022/12/30 03:40:01;;;;;;;2.47;2.23;;;7.30;99.90;;;;;;5049935;28;20232;-86
2022/12/30 03:42:28;;;;;;;2.03;1.93;;;7.20;99.90;;;;;;5055501;28;20191;-86
2022/12/30 03:44:54;;;;;;;2.33;2.13;;;7.20;99.90;;;;;;5053731;28;20248;-84
2022/12/30 03:47:19;;;;;;;2.30;2.10;;;7.20;99.90;;;;;;5052460;28;20200;-84
2022/12/30 03:49:46;;;;;;;2.33;2.03;;;7.10;99.90;;;;;;5054516;28;20208;-84
2022/12/30 03:52:20;;;;;;;2.17;1.97;;;7.10;99.90;;;;;;5049443;28;20185;-83
2022/12/30 03:54:47;;;;;;;2.50;2.30;;;7.00;99.90;;;;;;5055188;28;20656;-84
2022/12/30 03:57:13;;;;;;;3.03;2.10;;;6.90;99.90;;;;;;5056862;28;20235;-83
2022/12/30 03:59:40;;;;;;;2.37;2.03;;;6.90;99.90;;;;;;5057197;28;20207;-84
2022/12/30 04:02:05;;;;;;;1.93;1.80;;;7.00;99.90;;;;;;5050991;28;20176;-86
2022/12/30 04:04:31;;;;;;;2.10;1.90;;;7.10;99.90;;;;;;5050332;28;20180;-84
2022/12/30 04:06:57;;;;;;;2.40;2.20;;;7.30;99.90;;;;;;5052746;28;20594;-85
2022/12/30 04:09:22;;;;;;;1.80;1.70;;;7.30;99.90;;;;;;5057950;28;20239;-85
2022/12/30 04:11:48;;;;;;;1.60;1.50;;;7.50;99.90;;;;;;5050111;28;20189;-85
2022/12/30 04:14:14;;;;;;;1.97;1.83;;;7.50;99.90;;;;;;5057313;28;20196;-85
2022/12/30 04:16:39;;;;;;;2.20;2.00;;;7.50;99.90;;;;;;5051967;28;20208;-84
2022/12/30 04:19:05;;;;;;;1.90;1.80;;;7.60;99.90;;;;;;5055995;28;20181;-85
2022/12/30 04:21:31;;;;;;;1.70;1.60;;;7.60;99.90;;;;;;5050760;28;20224;-85
2022/12/30 04:23:56;;;;;;;2.20;1.73;;;7.60;99.90;;;;;;5052100;28;20180;-85
2022/12/30 04:26:22;;;;;;;2.00;1.90;;;7.70;99.90;;;;;;5053561;28;20187;-84
2022/12/30 04:28:47;;;;;;;2.57;1.90;;;7.70;99.90;;;;;;5054605;28;20256;-84
2022/12/30 04:31:13;;;;;;;2.10;2.00;;;7.70;99.90;;;;;;5054248;28;20212;-83
2022/12/30 04:33:39;;;;;;;2.63;2.07;;;7.80;99.90;;;;;;5055931;28;20275;-85
2022/12/30 04:36:06;;;;;;;2.07;1.97;;;7.80;99.90;;;;;;5058832;28;20276;-85
2022/12/30 04:38:32;;;;;;;1.90;1.80;;;7.70;99.90;;;;;;5051966;28;20518;-84
2022/12/30 04:40:58;;;;;;;2.03;1.93;;;7.70;99.90;;;;;;5047110;28;20209;-84
2022/12/30 04:43:24;;;;;;;2.20;2.10;;;7.70;99.90;;;;;;5050291;28;20187;-86
2022/12/30 04:45:49;;;;;;;2.43;2.00;;;7.60;99.90;;;;;;5056559;28;20195;-84
2022/12/30 04:48:15;;;;;;;2.73;2.40;;;7.60;99.90;;;;;;5055289;28;20869;-86
2022/12/30 04:50:42;;;;;;;2.70;2.50;;;7.60;99.90;;;;;;5057197;28;20212;-84
2022/12/30 04:53:09;;;;;;;2.43;2.23;;;7.50;99.90;;;;;;5039893;28;20196;-85
2022/12/30 04:55:34;;;;;;;2.60;1.70;;;7.50;99.90;;;;;;5053595;28;20697;-84
2022/12/30 04:58:00;;;;;;;3.30;2.10;;;7.40;99.90;;;;;;5060461;28;20207;-84
2022/12/30 05:00:25;;;;;;;2.30;2.10;;;7.50;99.90;;;;;;5049077;28;20367;-84
2022/12/30 05:02:51;;;;;;;2.97;2.30;;;7.50;99.90;;;;;;5057618;28;20193;-83
2022/12/30 05:05:17;;;;;;;3.53;2.40;;;7.30;99.90;;;;;;5053501;28;20325;-84
2022/12/30 05:07:43;;;;;;;2.80;2.40;;;7.40;99.90;;;;;;5056218;28;20647;-84
2022/12/30 05:10:08;;;;;;;2.30;2.10;;;7.50;99.90;;;;;;5047536;28;20304;-84
2022/12/30 05:12:34;;;;;;;2.17;2.07;;;7.60;99.90;;;;;;5049578;28;20211;-87
2022/12/30 05:14:59;;;;;;;2.60;2.17;;;7.60;99.90;;;;;;5053259;28;20182;-85
2022/12/30 05:17:25;;;;;;;2.20;2.00;;;7.50;99.90;;;;;;5056452;28;20235;-84
2022/12/30 05:19:51;;;;;;;1.97;1.87;;;7.50;99.90;;;;;;5055056;28;20261;-85
2022/12/30 05:22:16;;;;;;;2.20;2.00;;;7.50;99.90;;;;;;5054365;28;20200;-84
2022/12/30 05:27:27;;;;;;;3.80;2.80;;;7.50;99.90;;;;;;5043836;28;20205;-85
2022/12/30 05:29:52;;;;;;;2.33;2.13;;;7.40;99.90;;;;;;5049174;28;20204;-84
2022/12/30 05:32:18;;;;;;;2.20;2.00;;;7.40;99.90;;;;;;5057350;28;20192;-85
2022/12/30 05:34:44;;;;;;;2.10;1.90;;;7.30;99.90;;;;;;5052251;28;20333;-84
2022/12/30 05:37:09;;;;;;;2.37;2.17;;;7.20;99.90;;;;;;5054158;28;20206;-83
2022/12/30 05:39:35;;;;;;;2.37;2.03;;;7.30;99.90;;;;;;5046148;28;20707;-84
2022/12/30 05:42:00;;;;;;;1.87;1.77;;;7.30;99.90;;;;;;5053226;28;20658;-85
2022/12/30 05:44:26;;;;;;;4.00;2.20;;;7.30;99.90;;;;;;5048368;28;20181;-83
2022/12/30 05:46:52;;;;;;;2.77;2.10;;;7.10;99.90;;;;;;5054782;28;20204;-84
2022/12/30 05:49:18;;;;;;;1.87;1.77;;;6.70;99.90;;;;;;5049435;28;20189;-85
2022/12/30 05:51:43;;;;;;;2.27;2.07;;;6.70;99.90;;;;;;5053611;28;20188;-84
2022/12/30 05:54:09;;;;;;;2.83;2.03;;;6.80;99.90;;;;;;5058003;28;20202;-83
2022/12/30 05:56:35;;;;;;;2.47;2.27;;;6.90;99.90;;;;;;5055302;28;20234;-86
2022/12/30 05:59:00;;;;;;;2.30;2.10;;;7.00;99.90;;;;;;5058069;28;20239;-84
2022/12/30 06:01:26;;;;;;;2.00;1.90;;;7.10;99.90;;;;;;5052830;28;20204;-83
2022/12/30 06:03:56;;;;;;;2.27;2.10;;;7.10;99.90;;;;;;5055229;28;20183;-84
2022/12/30 06:06:22;;;;;;;2.17;1.90;;;7.10;99.90;;;;;;5055001;28;20181;-84
2022/12/30 06:08:48;;;;;;;2.60;2.40;;;7.00;99.90;;;;;;5051585;28;20225;-85
2022/12/30 06:11:14;;;;;;;2.60;2.30;;;6.90;99.90;;;;;;5053319;28;20720;-83
2022/12/30 06:13:40;;;;;;;2.93;2.53;;;6.70;99.90;;;;;;5057766;28;20195;-84
2022/12/30 06:16:06;;;;;;;2.50;2.30;;;6.70;99.90;;;;;;5063349;28;20172;-85
2022/12/30 06:18:32;;;;;;;3.57;2.93;;;6.60;99.90;;;;;;5056602;28;20449;-84
2022/12/30 06:20:57;;;;;;;3.60;3.40;;;6.60;99.90;;;;;;5058275;28;20203;-85
2022/12/30 06:23:24;;;;;;;4.07;2.77;;;6.60;99.90;;;;;;5060241;28;20176;-85
2022/12/30 06:25:54;;;;;;;2.60;2.40;;;6.60;99.90;;;;;;5062546;28;20184;-86
2022/12/30 06:28:21;;;;;;;2.40;2.10;;;6.60;99.90;;;;;;5048542;28;20279;-85
2022/12/30 06:30:48;;;;;;;3.10;2.10;;;6.60;99.90;;;;;;5068514;28;20200;-84
2022/12/30 06:33:14;;;;;;;3.60;2.47;;;6.60;99.90;;;;;;5067143;28;20176;-85
2022/12/30 06:35:40;;;;;;;2.43;2.30;;;6.60;99.90;;;;;;5062880;28;20183;-85
2022/12/30 06:38:05;;;;;;;4.13;2.30;;;6.60;99.90;;;;;;5065988;28;20285;-84
2022/12/30 06:40:31;;;;;;;10.83;6.53;;;6.60;99.90;;;;;;5063242;28;20624;-85
2022/12/30 06:42:56;;;;;;;5.50;4.30;;;6.60;99.90;;;;;;5057511;28;20203;-84
2022/12/30 06:45:22;;;;;;;3.60;3.30;;;6.60;99.90;;;;;;5060334;28;20177;-85
2022/12/30 06:47:48;;;;;;;5.37;3.57;;;6.70;99.90;;;;;;5064096;28;20592;-85
2022/12/30 06:50:13;;;;;;;5.73;5.23;;;6.70;99.90;;;;;;5056866;28;20214;-83
2022/12/30 06:52:39;;;;;;;4.30;3.90;;;6.50;99.90;;;;;;5061534;28;20201;-85
2022/12/30 06:55:05;;;;;;;3.20;2.90;;;6.60;99.90;;;;;;5065868;28;20188;-84
2022/12/30 06:57:31;;;;;;;3.33;3.03;;;6.50;99.90;;;;;;5056500;28;20220;-84
2022/12/30 06:59:56;;;;;;;3.43;3.13;;;6.50;99.90;;;;;;5066749;28;20215;-84
2022/12/30 07:02:22;;;;;;;3.50;3.20;;;6.50;99.90;;;;;;5068164;28;20184;-84
2022/12/30 07:04:48;;;;;;;3.87;3.13;;;6.50;99.90;;;;;;5066308;28;20207;-84
2022/12/30 07:07:13;;;;;;;3.87;3.10;;;6.50;99.90;;;;;;5065562;28;20439;-85
2022/12/30 07:09:39;;;;;;;3.77;3.17;;;6.50;99.90;;;;;;5063607;28;20694;-84
2022/12/30 07:12:05;;;;;;;3.17;2.87;;;6.50;99.90;;;;;;5066605;28;20199;-85
2022/12/30 07:14:31;;;;;;;4.40;3.80;;;6.50;99.90;;;;;;5072009;28;20387;-84
2022/12/30 07:16:56;;;;;;;4.40;3.70;;;6.50;99.90;;;;;;5071297;28;20213;-82
2022/12/30 07:19:22;;;;;;;3.97;3.10;;;6.50;99.90;;;;;;5072842;28;20223;-85
2022/12/30 07:21:48;;;;;;;2.83;2.60;;;6.60;99.90;;;;;;5072338;28;20176;-83
2022/12/30 07:24:13;;;;;;;3.90;3.50;;;6.60;99.90;;;;;;5071881;28;20187;-85
2022/12/30 07:26:39;;;;;;;3.43;3.13;;;6.50;99.90;;;;;;5071815;28;20194;-84
2022/12/30 07:29:05;;;;;;;4.20;3.37;;;6.50;99.90;;;;;;5071933;28;20180;-83
2022/12/30 07:31:32;;;;;;;3.17;2.60;;;6.40;99.90;;;;;;5071284;28;20204;-82
2022/12/30 07:33:57;;;;;;;3.20;2.63;;;6.40;99.90;;;;;;5069866;28;20188;-83
2022/12/30 07:36:23;;;;;;;2.43;2.23;;;6.40;99.90;;;;;;5069128;28;20243;-82
2022/12/30 07:38:49;;;;;;;2.50;2.30;;;6.30;99.90;;;;;;5066892;28;20177;-87
2022/12/30 07:41:14;;;;;;;2.70;2.40;;;6.20;99.90;;;;;;5074035;28;20235;-87
2022/12/30 07:43:40;;;;;;;5.57;3.20;;;6.20;99.90;;;;;;5075748;28;20246;-85
2022/12/30 07:46:07;;;;;;;5.60;3.03;;;6.10;99.90;;;;;;5071107;28;20183;-83
2022/12/30 07:48:33;;;;;;;4.20;2.87;;;6.10;99.90;;;;;;5059321;28;20192;-83
2022/12/30 07:50:59;;;;;;;2.90;2.30;;;6.20;99.90;;;;;;5052641;28;20224;-82
2022/12/30 07:53:24;;;;;;;3.20;2.50;;;6.20;99.90;;;;;;5048489;28;20196;-82
2022/12/30 07:55:50;;;;;;;3.00;2.80;;;6.40;99.90;;;;;;5053966;28;20282;-83
2022/12/30 07:58:15;;;;;;;4.47;3.73;;;6.30;99.90;;;;;;5066332;28;20215;-84
2022/12/30 08:00:41;;;;;;;5.47;3.53;;;6.40;99.90;;;;;;5064259;28;20543;-84
2022/12/30 08:03:07;;;;;;;4.30;3.93;;;6.30;99.90;;;;;;5060142;28;20236;-83
2022/12/30 08:05:32;;;;;;;6.67;5.97;;;6.30;99.90;;;;;;5062849;28;20172;-85
2022/12/30 08:07:58;;;;;;;6.17;5.40;;;6.20;99.90;;;;;;5063765;28;20216;-86
2022/12/30 08:10:24;;;;;;;6.37;4.90;;;6.20;99.90;;;;;;5063591;28;20211;-83
2022/12/30 08:12:49;;;;;;;6.57;4.40;;;6.20;99.90;;;;;;5069324;28;20176;-85
2022/12/30 08:15:15;;;;;;;4.70;4.23;;;6.30;99.90;;;;;;5058249;28;20196;-84
2022/12/30 08:17:41;;;;;;;7.00;5.20;;;6.20;99.90;;;;;;5067468;28;20212;-84
2022/12/30 08:20:10;;;;;;;6.07;4.60;;;6.10;99.90;;;;;;5067893;28;20219;-87
2022/12/30 08:22:41;;;;;;;6.30;5.20;;;6.30;99.90;;;;;;5061895;28;20261;-86
2022/12/30 08:25:07;;;;;;;6.77;5.10;;;6.30;99.90;;;;;;5045395;28;20176;-83
2022/12/30 08:27:33;;;;;;;7.63;6.93;;;6.30;99.90;;;;;;5059130;28;20180;-85
2022/12/30 08:29:59;;;;;;;7.00;5.03;;;6.40;99.90;;;;;;5053165;28;20300;-84
2022/12/30 08:32:25;;;;;;;6.53;4.73;;;6.20;99.90;;;;;;5053678;28;20207;-84
2022/12/30 08:34:50;;;;;;;7.27;5.30;;;6.20;99.90;;;;;;5067808;28;20192;-85
2022/12/30 08:37:16;;;;;;;8.97;6.03;;;6.10;99.90;;;;;;5070003;28;20240;-86
2022/12/30 08:39:42;;;;;;;5.70;4.80;;;6.20;99.90;;;;;;5059904;28;20225;-82
2022/12/30 08:42:08;;;;;;;5.60;5.10;;;6.20;99.90;;;;;;5062794;28;20180;-85
2022/12/30 08:44:33;;;;;;;5.67;5.17;;;6.40;99.90;;;;;;5058568;28;20199;-83
2022/12/30 08:46:59;;;;;;;8.50;6.30;;;6.50;99.90;;;;;;5058273;28;20192;-83
2022/12/30 08:49:25;;;;;;;7.33;6.33;;;6.60;99.90;;;;;;5059087;28;20203;-82
2022/12/30 08:51:51;;;;;;;7.17;6.37;;;6.80;99.90;;;;;;5053854;28;20248;-81
2022/12/30 08:54:17;;;;;;;8.17;7.30;;;6.70;99.90;;;;;;5053163;28;20209;-83
2022/12/30 08:56:45;;;;;;;9.20;7.37;;;6.60;99.90;;;;;;5045001;28;20240;-83
2022/12/30 08:59:11;;;;;;;9.13;7.20;;;6.70;99.90;;;;;;5055005;28;20195;-83
2022/12/30 09:01:40;;;;;;;7.93;7.13;;;6.70;99.90;;;;;;5056341;28;20196;-81
2022/12/30 09:04:06;;;;;;;8.83;7.20;;;6.70;99.90;;;;;;5056023;28;20185;-85
2022/12/30 09:06:34;;;;;;;10.20;7.67;;;6.80;99.90;;;;;;5053996;28;20187;-84
2022/12/30 09:09:00;;;;;;;8.03;7.23;;;6.90;99.90;;;;;;5057005;28;20181;-82
2022/12/30 09:11:30;;;;;;;12.27;7.13;;;7.00;99.90;;;;;;5061364;28;20226;-83
2022/12/30 09:13:56;;;;;;;10.00;6.43;;;6.90;99.90;;;;;;5055896;28;20185;-85
2022/12/30 09:16:23;;;;;;;9.37;6.63;;;7.00;99.90;;;;;;5055719;28;20184;-82
2022/12/30 09:18:49;;;;;;;7.07;5.63;;;7.10;99.90;;;;;;5050376;28;20177;-84
2022/12/30 09:21:16;;;;;;;12.70;7.00;;;7.10;99.90;;;;;;5058803;28;20208;-82
2022/12/30 09:23:42;;;;;;;9.63;6.40;;;7.10;99.90;;;;;;5048025;28;20677;-81
2022/12/30 09:26:12;;;;;;;6.53;5.70;;;7.10;99.90;;;;;;5054912;28;20172;-81
2022/12/30 09:28:38;;;;;;;9.33;5.13;;;7.10;99.90;;;;;;5054714;28;20209;-82
2022/12/30 09:31:05;;;;;;;5.37;4.83;;;7.10;99.90;;;;;;5051722;28;20693;-82
2022/12/30 09:33:31;;;;;;;6.10;4.00;;;7.10;99.90;;;;;;5049215;28;20181;-81
2022/12/30 09:35:57;;;;;;;4.87;3.43;;;7.20;99.90;;;;;;5049319;28;20208;-81
2022/12/30 09:38:23;;;;;;;4.43;3.10;;;7.20;99.90;;;;;;5056306;28;20200;-84
2022/12/30 09:41:04;;;;;;;3.30;3.00;;;7.00;99.90;;;;;;5046819;28;20204;-82
2022/12/30 09:43:53;;;;;;;4.03;3.40;;;7.00;99.90;;;;;;5055060;28;20184;-81
2022/12/30 09:46:28;;;;;;;4.43;3.10;;;7.00;99.90;;;;;;5054302;28;20181;-81
2022/12/30 09:49:11;;;;;;;3.83;3.10;;;7.10;99.90;;;;;;5059121;28;20238;-82
2022/12/30 09:51:44;;;;;;;5.97;3.40;;;7.20;99.90;;;;;;5057476;28;20228;-80
2022/12/30 09:54:17;;;;;;;3.17;2.70;;;7.40;99.90;;;;;;5057931;28;20265;-83
2022/12/30 09:56:46;;;;;;;4.13;3.13;;;7.30;99.90;;;;;;5045684;28;20315;-84
2022/12/30 09:59:38;;;;;;;4.10;3.13;;;7.30;99.90;;;;;;5057794;28;20183;-83
2022/12/30 10:02:25;;;;;;;3.27;2.60;;;7.40;99.90;;;;;;5052724;28;20204;-82
2022/12/30 10:04:51;;;;;;;2.83;2.57;;;7.30;99.90;;;;;;5062106;28;20173;-82
2022/12/30 10:07:41;;;;;;;3.30;2.90;;;7.60;99.90;;;;;;5056150;28;20177;-83
2022/12/30 10:10:17;;;;;;;3.33;2.43;;;7.80;99.90;;;;;;5065258;28;20219;-84
2022/12/30 10:13:01;;;;;;;3.57;2.80;;;7.90;99.90;;;;;;5060546;28;20658;-84
2022/12/30 10:15:53;;;;;;;4.33;3.00;;;8.00;99.90;;;;;;5062021;28;20184;-84
2022/12/30 10:18:32;;;;;;;4.83;2.87;;;8.00;99.90;;;;;;5061120;28;20215;-84
2022/12/30 10:21:14;;;;;;;4.03;2.97;;;8.20;99.90;;;;;;5060210;28;20206;-86
2022/12/30 10:24:09;;;;;;;4.20;2.73;;;8.30;99.90;;;;;;5062706;28;20192;-86
2022/12/30 10:26:42;;;;;;;4.30;2.80;;;8.30;99.90;;;;;;5047601;28;20214;-86
2022/12/30 10:29:17;;;;;;;3.70;3.03;;;8.50;99.90;;;;;;5057553;28;20188;-86
2022/12/30 10:31:46;;;;;;;3.40;3.10;;;8.70;99.90;;;;;;5044392;28;20188;-85
2022/12/30 10:34:16;;;;;;;4.37;3.03;;;8.70;99.90;;;;;;5062538;28;20207;-85
2022/12/30 10:36:45;;;;;;;3.80;3.30;;;8.80;99.90;;;;;;5045136;28;20631;-84
2022/12/30 10:39:22;;;;;;;3.30;3.00;;;8.90;99.90;;;;;;5061070;28;20168;-85
2022/12/30 10:42:09;;;;;;;4.10;3.20;;;9.00;99.70;;;;;;5062854;28;20180;-84
2022/12/30 10:44:51;;;;;;;3.13;2.70;;;9.00;98.70;;;;;;5060315;28;20250;-84
2022/12/30 10:47:30;;;;;;;4.17;2.93;;;9.10;98.10;;;;;;5060998;28;20182;-83
2022/12/30 10:50:13;;;;;;;3.20;2.90;;;8.90;99.40;;;;;;5045142;28;20212;-83
2022/12/30 10:52:39;;;;;;;3.47;3.17;;;9.10;98.30;;;;;;5060076;28;20198;-83
2022/12/30 10:55:26;;;;;;;4.07;3.07;;;9.20;99.30;;;;;;5042712;28;20316;-84
2022/12/30 10:58:03;;;;;;;2.87;2.57;;;9.10;98.50;;;;;;5043149;28;20216;-84
2022/12/30 11:00:32;;;;;;;3.60;2.87;;;9.00;99.80;;;;;;5061936;28;20215;-84
2022/12/30 11:03:05;;;;;;;3.97;3.10;;;9.10;98.80;;;;;;5061338;28;20283;-86
2022/12/30 11:05:34;;;;;;;5.07;2.80;;;8.90;98.70;;;;;;5062311;28;20238;-83
2022/12/30 11:08:03;;;;;;;2.90;2.67;;;8.90;99.90;;;;;;5062977;28;20192;-84
2022/12/30 11:10:29;;;;;;;4.00;2.70;;;9.10;99.90;;;;;;5048992;28;20235;-85
2022/12/30 11:16:13;;;;;;;5.23;3.17;;;9.30;99.50;;;;;;5020926;28;20202;-84
2022/12/30 11:18:44;;;;;;;4.27;3.17;;;9.60;97.20;;;;;;5062821;28;20207;-87
2022/12/30 11:21:10;;;;;;;3.67;2.70;;;9.70;95.70;;;;;;5067752;28;20199;-84
2022/12/30 11:23:39;;;;;;;2.63;2.33;;;9.70;96.10;;;;;;5058846;28;20194;-83
2022/12/30 11:26:25;;;;;;;2.67;2.47;;;9.70;97.60;;;;;;5056980;28;20243;-83
2022/12/30 11:29:12;;;;;;;3.60;2.70;;;9.70;96.60;;;;;;5065167;28;20250;-82
2022/12/30 11:31:42;;;;;;;4.53;3.87;;;9.70;97.70;;;;;;5065706;28;20233;-84
2022/12/30 11:34:27;;;;;;;3.50;2.47;;;9.70;98.40;;;;;;5061061;28;20185;-81
2022/12/30 11:36:53;;;;;;;2.83;2.40;;;9.70;97.50;;;;;;5065284;28;20219;-83
2022/12/30 11:39:26;;;;;;;2.80;2.60;;;9.60;97.30;;;;;;5064961;28;20177;-85
2022/12/30 11:41:57;;;;;;;3.60;2.80;;;9.60;97.40;;;;;;5070482;28;20189;-84
2022/12/30 11:44:25;;;;;;;3.50;2.87;;;9.60;97.70;;;;;;5060703;28;20181;-84
2022/12/30 11:46:54;;;;;;;5.67;5.17;;;9.50;98.70;;;;;;5055997;28;20205;-84
2022/12/30 11:49:53;;;;;;;4.60;4.17;;;9.50;99.00;;;;;;5062654;28;20197;-84
2022/12/30 11:52:25;;;;;;;3.13;2.80;;;9.50;99.20;;;;;;5055235;28;20206;-83
2022/12/30 11:54:55;;;;;;;3.87;3.47;;;9.20;99.90;;;;;;5058822;28;20203;-83
2022/12/30 11:57:24;;;;;;;3.83;3.20;;;9.20;99.90;;;;;;5054794;28;20230;-84
2022/12/30 11:59:56;;;;;;;4.03;3.43;;;9.30;99.90;;;;;;5062348;28;21004;-84
2022/12/30 12:02:37;;;;;;;3.77;2.70;;;9.20;99.90;;;;;;5060859;28;20283;-83
2022/12/30 12:05:41;;;;;;;5.37;3.23;;;9.30;99.90;;;;;;5058370;28;20783;-83
2022/12/30 12:08:25;;;;;;;3.53;3.00;;;9.50;98.20;;;;;;4982950;28;20201;-83
2022/12/30 12:11:02;;;;;;;4.83;3.70;;;9.60;98.90;;;;;;5055107;28;20215;-84
2022/12/30 12:13:50;;;;;;;5.13;3.77;;;9.50;97.80;;;;;;5066637;28;20182;-82
2022/12/30 12:16:38;;;;;;;4.43;3.37;;;9.40;98.20;;;;;;5046775;28;20205;-83
2022/12/30 12:19:34;;;;;;;4.87;3.00;;;9.30;99.30;;;;;;5064737;28;20233;-83
2022/12/30 12:22:04;;;;;;;3.87;2.43;;;9.40;99.00;;;;;;5008862;28;20195;-85
2022/12/30 12:24:39;;;;;;;2.73;2.50;;;9.50;98.40;;;;;;5057923;28;20176;-83
2022/12/30 12:27:17;;;;;;;3.57;2.53;;;9.50;99.70;;;;;;5041175;28;20179;-83
2022/12/30 12:29:45;;;;;;;4.50;2.90;;;9.50;99.90;;;;;;5061859;28;20262;-83
2022/12/30 12:32:13;;;;;;;6.20;3.60;;;9.70;97.50;;;;;;5062972;28;20195;-85
2022/12/30 12:35:08;;;;;;;4.67;3.37;;;9.70;99.70;;;;;;5053695;28;20207;-83
2022/12/30 12:37:52;;;;;;;3.43;3.13;;;9.80;98.30;;;;;;5042065;28;20220;-83
2022/12/30 12:40:21;;;;;;;3.27;2.97;;;9.80;97.50;;;;;;5057331;28;20208;-83
2022/12/30 12:42:59;;;;;;;3.77;3.47;;;9.80;98.50;;;;;;5054343;28;20250;-82
2022/12/30 12:45:39;;;;;;;5.97;4.03;;;10.10;97.70;;;;;;5053703;28;20186;-82
2022/12/30 12:48:35;;;;;;;3.70;3.40;;;10.40;95.60;;;;;;5056200;28;20183;-83
2022/12/30 12:51:16;;;;;;;5.17;4.63;;;10.70;94.10;;;;;;5046407;28;20196;-83
2022/12/30 12:53:56;;;;;;;4.27;3.30;;;10.60;93.40;;;;;;5050752;28;20668;-83
2022/12/30 12:56:43;;;;;;;5.30;3.53;;;10.30;93.80;;;;;;5053565;28;20200;-85
2022/12/30 12:59:21;;;;;;;4.10;3.70;;;10.20;93.80;;;;;;5056966;28;20264;-86
2022/12/30 13:02:08;;;;;;;5.33;3.50;;;10.00;96.90;;;;;;5060823;28;20192;-85
2022/12/30 13:04:40;;;;;;;7.60;5.67;;;9.90;96.80;;;;;;5056552;28;20859;-85
2022/12/30 13:07:14;;;;;;;5.83;4.27;;;9.80;99.30;;;;;;5053752;28;20215;-84
2022/12/30 13:10:18;;;;;;;4.10;3.73;;;9.80;98.70;;;;;;5054009;28;20211;-81
2022/12/30 13:13:18;;;;;;;5.63;3.90;;;9.80;99.20;;;;;;4963884;29;20181;-83
2022/12/30 13:15:50;;;;;;;3.37;3.00;;;9.80;99.80;;;;;;4964749;29;20191;-82
2022/12/30 13:18:20;;;;;;;4.73;3.10;;;9.80;98.20;;;;;;5027201;28;20295;-84
2022/12/30 13:20:59;;;;;;;3.40;2.97;;;9.60;98.20;;;;;;5047697;28;20247;-84
2022/12/30 13:23:32;;;;;;;4.53;3.43;;;9.40;98.60;;;;;;5061173;28;20179;-89
2022/12/30 13:26:02;;;;;;;3.47;3.13;;;9.40;98.80;;;;;;5072002;28;20201;-88
2022/12/30 13:28:31;;;;;;;4.33;3.60;;;9.30;99.90;;;;;;5063906;28;20172;-87
2022/12/30 13:31:32;;;;;;;5.33;3.27;;;9.20;99.90;;;;;;5067565;28;20219;-84
2022/12/30 13:34:12;;;;;;;5.70;3.73;;;9.20;99.90;;;;;;5039841;28;20209;-83
2022/12/30 13:37:10;;;;;;;4.50;3.67;;;9.50;99.90;;;;;;5051390;28;20201;-80
2022/12/30 13:39:52;;;;;;;6.13;4.80;;;9.70;99.50;;;;;;5051402;28;20215;-81
2022/12/30 13:42:24;;;;;;;5.53;4.77;;;9.60;99.90;;;;;;5054385;28;20206;-82
2022/12/30 13:44:51;;;;;;;4.93;4.10;;;9.70;99.90;;;;;;5044334;28;20254;-86
2022/12/30 13:47:26;;;;;;;4.43;3.40;;;9.80;99.90;;;;;;5049660;28;20195;-85
2022/12/30 13:49:51;;;;;;;5.83;3.80;;;9.70;99.90;;;;;;5055240;28;20218;-81
2022/12/30 13:52:23;;;;;;;5.27;4.13;;;9.70;99.90;;;;;;5050600;28;20208;-82
2022/12/30 13:54:58;;;;;;;4.33;3.53;;;9.40;99.90;;;;;;5058323;28;20290;-82
2022/12/30 13:57:36;;;;;;;3.90;3.50;;;9.20;99.90;;;;;;5056686;28;20240;-82
2022/12/30 14:00:13;;;;;;;5.47;3.13;;;9.20;99.90;;;;;;5058782;28;20203;-82
2022/12/30 14:02:42;;;;;;;5.07;3.50;;;9.20;99.90;;;;;;5048908;28;20187;-84
2022/12/30 14:05:50;;;;;;;3.87;3.50;;;9.30;99.90;;;;;;5056364;28;20191;-82
2022/12/30 14:08:25;;;;;;;5.53;4.90;;;9.20;99.90;;;;;;5047407;28;20195;-83
2022/12/30 14:11:00;;;;;;;6.23;4.77;;;9.30;99.90;;;;;;5043242;28;20230;-82